createdAt,value
2023-02-05T00:00:20.555Z,0.80
2023-02-05T00:02:47.447Z,0.80
2023-02-05T00:05:14.260Z,0.70
2023-02-05T00:07:40.993Z,0.70
2023-02-05T00:10:07.990Z,0.70
2023-02-05T00:12:34.869Z,0.70
2023-02-05T00:15:01.624Z,0.70
2023-02-05T00:17:28.625Z,0.60
2023-02-05T00:19:55.400Z,0.60
2023-02-05T00:22:22.241Z,0.60
2023-02-05T00:24:48.997Z,0.50
2023-02-05T00:27:15.698Z,0.50
2023-02-05T00:29:42.468Z,0.50
2023-02-05T00:32:09.143Z,0.50
2023-02-05T00:34:36.029Z,0.40
2023-02-05T00:37:02.784Z,0.40
2023-02-05T00:39:29.640Z,0.30
2023-02-05T00:41:56.361Z,0.30
2023-02-05T00:44:23.122Z,0.30
2023-02-05T00:46:49.803Z,0.30
2023-02-05T00:49:16.519Z,0.30
2023-02-05T00:51:43.205Z,0.30
2023-02-05T00:54:09.927Z,0.30
2023-02-05T00:56:36.655Z,0.30
2023-02-05T00:59:04.023Z,0.30
2023-02-05T01:01:30.912Z,0.30
2023-02-05T01:03:57.749Z,0.30
2023-02-05T01:06:24.481Z,0.30
2023-02-05T01:08:51.269Z,0.30
2023-02-05T01:11:18.031Z,0.30
2023-02-05T01:13:44.763Z,0.30
2023-02-05T01:16:11.670Z,0.20
2023-02-05T01:18:38.395Z,0.20
2023-02-05T01:21:05.378Z,0.20
2023-02-05T01:23:32.174Z,0.20
2023-02-05T01:25:58.944Z,0.10
2023-02-05T01:28:25.626Z,0.10
2023-02-05T01:30:52.732Z,0.10
2023-02-05T01:33:19.838Z,0.10
2023-02-05T01:35:46.819Z,0.10
2023-02-05T01:38:14.309Z,0.10
2023-02-05T01:40:41.338Z,0.10
2023-02-05T01:43:15.520Z,0.10
2023-02-05T01:46:05.466Z,0.10
2023-02-05T01:48:43.368Z,0.10
2023-02-05T01:51:14.363Z,0.10
2023-02-05T01:53:42.659Z,0.10
2023-02-05T01:56:21.711Z,0.10
2023-02-05T01:58:54.763Z,0.10
2023-02-05T02:01:21.672Z,0.10
2023-02-05T02:03:50.290Z,0.10
2023-02-05T02:06:17.177Z,0.10
2023-02-05T02:08:43.930Z,0.00
2023-02-05T02:11:14.178Z,0.00
2023-02-05T02:13:41.571Z,0.00
2023-02-05T02:16:09.273Z,0.00
2023-02-05T02:18:38.139Z,-0.10
2023-02-05T02:21:08.025Z,-0.10
2023-02-05T02:23:43.665Z,-0.10
2023-02-05T02:26:33.609Z,-0.10
2023-02-05T02:29:02.079Z,-0.20
2023-02-05T02:31:34.986Z,-0.20
2023-02-05T02:34:30.893Z,-0.20
2023-02-05T02:37:06.764Z,-0.20
2023-02-05T02:39:49.128Z,-0.20
2023-02-05T02:42:28.365Z,-0.20
2023-02-05T02:45:04.557Z,-0.20
2023-02-05T02:47:40.768Z,-0.20
2023-02-05T02:50:14.034Z,-0.20
2023-02-05T02:52:44.235Z,-0.20
2023-02-05T02:55:14.343Z,-0.30
2023-02-05T02:57:42.897Z,-0.30
2023-02-05T03:00:14.803Z,-0.30
2023-02-05T03:02:45.396Z,-0.40
2023-02-05T03:05:17.378Z,-0.40
2023-02-05T03:07:50.739Z,-0.40
2023-02-05T03:10:20.255Z,-0.40
2023-02-05T03:12:46.982Z,-0.50
2023-02-05T03:15:13.968Z,-0.50
2023-02-05T03:17:42.201Z,-0.50
2023-02-05T03:20:09.145Z,-0.60
2023-02-05T03:22:35.839Z,-0.60
2023-02-05T03:25:04.781Z,-0.70
2023-02-05T03:27:31.748Z,-0.70
2023-02-05T03:29:58.642Z,-0.70
2023-02-05T03:32:43.078Z,-0.70
2023-02-05T03:35:16.885Z,-0.80
2023-02-05T03:37:43.581Z,-0.80
2023-02-05T03:40:26.683Z,-0.80
2023-02-05T03:43:08.862Z,-0.80
2023-02-05T03:45:44.574Z,-0.80
2023-02-05T03:48:23.289Z,-0.90
2023-02-05T03:51:22.822Z,-0.90
2023-02-05T03:53:52.646Z,-0.90
2023-02-05T03:56:28.866Z,-1.00
2023-02-05T03:58:57.319Z,-1.00
2023-02-05T04:01:25.356Z,-1.10
2023-02-05T04:03:52.114Z,-1.10
2023-02-05T04:06:19.137Z,-1.20
2023-02-05T04:08:45.873Z,-1.20
2023-02-05T04:11:13.426Z,-1.20
2023-02-05T04:13:40.174Z,-1.20
2023-02-05T04:16:06.926Z,-1.30
2023-02-05T04:18:33.643Z,-1.30
2023-02-05T04:21:01.666Z,-1.30
2023-02-05T04:23:28.401Z,-1.40
2023-02-05T04:25:55.942Z,-1.40
2023-02-05T04:28:22.681Z,-1.50
2023-02-05T04:30:49.675Z,-1.50
2023-02-05T04:33:16.567Z,-1.50
2023-02-05T04:35:43.337Z,-1.60
2023-02-05T04:38:10.078Z,-1.60
2023-02-05T04:40:36.769Z,-1.60
2023-02-05T04:43:03.511Z,-1.60
2023-02-05T04:45:31.230Z,-1.60
2023-02-05T04:47:59.555Z,-1.70
2023-02-05T04:50:26.941Z,-1.70
2023-02-05T04:52:53.721Z,-1.70
2023-02-05T04:55:20.442Z,-1.70
2023-02-05T04:57:47.154Z,-1.70
2023-02-05T05:00:14.494Z,-1.70
2023-02-05T05:02:41.235Z,-1.80
2023-02-05T05:05:08.246Z,-1.80
2023-02-05T05:07:34.995Z,-1.80
2023-02-05T05:10:01.682Z,-1.80
2023-02-05T05:12:28.400Z,-1.80
2023-02-05T05:14:55.105Z,-1.80
2023-02-05T05:17:21.796Z,-1.80
2023-02-05T05:19:48.510Z,-1.80
2023-02-05T05:22:15.259Z,-1.80
2023-02-05T05:24:41.947Z,-1.80
2023-02-05T05:27:08.705Z,-1.80
2023-02-05T05:29:35.774Z,-1.80
2023-02-05T05:32:02.644Z,-1.70
2023-02-05T05:34:29.351Z,-1.70
2023-02-05T05:36:56.197Z,-1.70
2023-02-05T05:39:41.711Z,-1.70
2023-02-05T05:42:30.261Z,-1.70
2023-02-05T05:44:57.101Z,-1.70
2023-02-05T05:47:23.889Z,-1.80
2023-02-05T05:49:50.670Z,-1.90
2023-02-05T05:52:17.604Z,-2.00
2023-02-05T05:54:44.387Z,-2.00
2023-02-05T05:57:11.223Z,-2.10
2023-02-05T05:59:37.974Z,-2.10
2023-02-05T06:02:05.108Z,-2.20
2023-02-05T06:04:31.948Z,-2.20
2023-02-05T06:06:59.319Z,-2.30
2023-02-05T06:09:26.166Z,-2.30
2023-02-05T06:11:52.856Z,-2.30
2023-02-05T06:14:19.614Z,-2.40
2023-02-05T06:16:46.379Z,-2.40
2023-02-05T06:19:13.153Z,-2.40
2023-02-05T06:21:40.024Z,-2.40
2023-02-05T06:24:06.823Z,-2.40
2023-02-05T06:26:33.524Z,-2.40
2023-02-05T06:29:03.239Z,-2.30
2023-02-05T06:31:31.576Z,-2.30
2023-02-05T06:33:58.346Z,-2.30
2023-02-05T06:36:25.102Z,-2.20
2023-02-05T06:38:51.833Z,-2.20
2023-02-05T06:41:18.761Z,-2.10
2023-02-05T06:43:45.645Z,-2.10
2023-02-05T06:46:12.473Z,-2.00
2023-02-05T06:48:39.199Z,-2.00
2023-02-05T06:51:06.220Z,-1.90
2023-02-05T06:53:33.098Z,-1.90
2023-02-05T06:55:59.937Z,-1.90
2023-02-05T06:58:26.695Z,-1.80
2023-02-05T07:00:53.384Z,-1.80
2023-02-05T07:03:20.085Z,-1.80
2023-02-05T07:05:46.836Z,-1.70
2023-02-05T07:08:13.521Z,-1.70
2023-02-05T07:10:40.254Z,-1.60
2023-02-05T07:13:06.957Z,-1.50
2023-02-05T07:15:36.584Z,-1.40
2023-02-05T07:18:05.096Z,-1.30
2023-02-05T07:20:31.991Z,-1.10
2023-02-05T07:22:58.769Z,-1.00
2023-02-05T07:25:25.537Z,-0.80
2023-02-05T07:27:52.414Z,-0.70
2023-02-05T07:30:19.215Z,-0.60
2023-02-05T07:32:45.964Z,-0.40
2023-02-05T07:35:12.735Z,-0.30
2023-02-05T07:37:39.587Z,-0.10
2023-02-05T07:40:06.914Z,0.00
2023-02-05T07:42:33.625Z,0.20
2023-02-05T07:45:00.311Z,0.30
2023-02-05T07:47:27.083Z,0.40
2023-02-05T07:49:53.812Z,0.40
2023-02-05T07:52:20.535Z,0.60
2023-02-05T07:54:47.218Z,0.80
2023-02-05T07:57:13.931Z,1.10
2023-02-05T07:59:40.691Z,1.50
2023-02-05T08:02:07.528Z,1.90
2023-02-05T08:04:34.353Z,2.20
2023-02-05T08:07:01.165Z,2.40
2023-02-05T08:09:27.938Z,2.70
2023-02-05T08:11:54.668Z,2.90
2023-02-05T08:14:21.518Z,3.40
2023-02-05T08:16:48.237Z,4.00
2023-02-05T08:19:17.798Z,4.30
2023-02-05T08:21:44.843Z,4.50
2023-02-05T08:24:11.684Z,4.60
2023-02-05T08:26:38.469Z,4.70
2023-02-05T08:29:05.339Z,5.30
2023-02-05T08:31:32.120Z,6.00
2023-02-05T08:34:00.060Z,6.50
2023-02-05T08:36:27.113Z,7.30
2023-02-05T08:38:53.845Z,7.70
2023-02-05T08:41:20.659Z,7.50
2023-02-05T08:43:49.684Z,7.10
2023-02-05T08:46:19.469Z,6.70
2023-02-05T08:48:47.141Z,6.30
2023-02-05T08:51:15.143Z,6.00
2023-02-05T08:53:43.227Z,5.70
2023-02-05T08:56:10.949Z,5.40
2023-02-05T08:58:38.890Z,5.30
2023-02-05T09:01:08.372Z,5.60
2023-02-05T09:03:35.277Z,6.20
2023-02-05T09:06:08.767Z,6.80
2023-02-05T09:08:35.603Z,7.50
2023-02-05T09:11:03.179Z,8.60
2023-02-05T09:13:29.961Z,9.80
2023-02-05T09:15:56.756Z,10.90
2023-02-05T09:18:24.133Z,11.90
2023-02-05T09:20:51.887Z,12.80
2023-02-05T09:23:19.574Z,13.90
2023-02-05T09:25:46.531Z,15.00
2023-02-05T09:28:14.610Z,15.80
2023-02-05T09:30:44.834Z,16.20
2023-02-05T09:33:12.394Z,16.20
2023-02-05T09:35:39.304Z,15.80
2023-02-05T09:38:06.132Z,15.30
2023-02-05T09:40:40.033Z,14.80
2023-02-05T09:43:44.460Z,14.50
2023-02-05T09:46:48.052Z,14.00
2023-02-05T09:49:21.448Z,13.50
2023-02-05T09:51:56.627Z,13.10
2023-02-05T09:54:27.090Z,12.80
2023-02-05T09:56:55.649Z,12.50
2023-02-05T09:59:25.187Z,12.20
2023-02-05T10:01:57.560Z,12.00
2023-02-05T10:04:25.200Z,11.60
2023-02-05T10:07:40.432Z,11.30
2023-02-05T10:10:26.590Z,10.90
2023-02-05T10:13:02.161Z,10.60
2023-02-05T10:15:55.607Z,10.20
2023-02-05T10:18:56.310Z,10.30
2023-02-05T10:21:28.829Z,10.00
2023-02-05T10:24:20.404Z,9.80
2023-02-05T10:26:53.624Z,9.50
2023-02-05T10:29:34.006Z,9.30
2023-02-05T10:32:08.574Z,9.00
2023-02-05T10:34:55.560Z,8.90
2023-02-05T10:37:48.472Z,9.10
2023-02-05T10:40:19.854Z,9.40
2023-02-05T10:42:51.024Z,9.40
2023-02-05T10:45:25.943Z,9.30
2023-02-05T10:48:22.624Z,9.00
2023-02-05T10:51:13.921Z,8.80
2023-02-05T10:53:40.756Z,8.90
2023-02-05T10:56:08.142Z,9.00
2023-02-05T10:58:39.686Z,9.10
2023-02-05T11:01:11.403Z,9.00
2023-02-05T11:03:38.260Z,8.80
2023-02-05T11:06:10.393Z,8.70
2023-02-05T11:08:40.689Z,8.60
2023-02-05T11:11:08.085Z,8.70
2023-02-05T11:13:41.769Z,8.80
2023-02-05T11:16:09.707Z,8.90
2023-02-05T11:18:40.409Z,8.90
2023-02-05T11:21:09.737Z,8.80
2023-02-05T11:23:41.171Z,8.70
2023-02-05T11:26:18.339Z,8.60
2023-02-05T11:28:45.129Z,8.40
2023-02-05T11:31:25.620Z,8.10
2023-02-05T11:34:13.078Z,7.80
2023-02-05T11:36:49.299Z,7.60
2023-02-05T11:39:37.699Z,7.60
2023-02-05T11:42:09.532Z,7.50
2023-02-05T11:44:41.931Z,7.60
2023-02-05T11:47:09.294Z,7.50
2023-02-05T11:49:39.254Z,7.40
2023-02-05T11:52:11.708Z,7.40
2023-02-05T11:54:45.923Z,7.40
2023-02-05T11:57:19.694Z,7.40
2023-02-05T12:00:09.264Z,7.30
2023-02-05T12:02:38.611Z,7.20
2023-02-05T12:05:21.591Z,7.20
2023-02-05T12:07:52.536Z,7.10
2023-02-05T12:10:29.020Z,7.00
2023-02-05T12:13:18.463Z,6.90
2023-02-05T12:15:51.330Z,6.90
2023-02-05T12:18:56.207Z,6.80
2023-02-05T12:21:48.850Z,6.80
2023-02-05T12:24:18.382Z,6.70
2023-02-05T12:26:47.902Z,6.70
2023-02-05T12:29:49.924Z,6.70
2023-02-05T12:32:19.437Z,6.60
2023-02-05T12:34:58.454Z,6.60
2023-02-05T12:38:16.704Z,6.60
2023-02-05T12:41:09.815Z,6.50
2023-02-05T12:43:42.458Z,6.30
2023-02-05T12:46:59.797Z,6.20
2023-02-05T12:49:46.220Z,6.10
2023-02-05T12:52:51.713Z,6.00
2023-02-05T12:55:47.265Z,5.80
2023-02-05T12:58:16.853Z,5.70
2023-02-05T13:00:53.025Z,5.70
2023-02-05T13:03:19.731Z,5.60
2023-02-05T13:06:16.480Z,5.60
2023-02-05T13:08:52.046Z,5.60
2023-02-05T13:11:25.589Z,5.60
2023-02-05T13:14:02.670Z,5.60
2023-02-05T13:16:49.640Z,5.60
2023-02-05T13:22:12.115Z,5.50
2023-02-05T13:25:14.336Z,5.50
2023-02-05T13:28:04.920Z,5.40
2023-02-05T13:30:38.108Z,5.40
2023-02-05T13:33:07.194Z,5.30
2023-02-05T13:36:03.648Z,5.30
2023-02-05T13:39:10.521Z,5.20
2023-02-05T13:41:52.184Z,5.20
2023-02-05T13:44:59.671Z,5.10
2023-02-05T13:47:58.435Z,5.00
2023-02-05T13:50:51.413Z,4.90
2023-02-05T13:53:32.044Z,4.90
2023-02-05T13:56:18.108Z,4.80
2023-02-05T13:58:55.605Z,4.80
2023-02-05T14:01:29.753Z,4.70
2023-02-05T14:04:08.879Z,4.70
2023-02-05T14:06:40.595Z,4.70
2023-02-05T14:09:24.347Z,4.60
2023-02-05T14:11:58.642Z,4.60
2023-02-05T14:14:29.369Z,4.60
2023-02-05T14:16:58.090Z,4.50
2023-02-05T14:19:56.135Z,4.50
2023-02-05T14:22:54.001Z,4.60
2023-02-05T14:25:36.822Z,4.60
2023-02-05T14:28:15.928Z,4.60
2023-02-05T14:30:58.632Z,4.50
2023-02-05T14:33:43.489Z,4.40
2023-02-05T14:36:21.167Z,4.40
2023-02-05T14:38:50.934Z,4.30
2023-02-05T14:41:24.105Z,4.20
2023-02-05T14:44:06.928Z,4.20
2023-02-05T14:46:39.813Z,4.10
2023-02-05T14:49:20.152Z,4.10
2023-02-05T14:51:52.197Z,4.10
2023-02-05T14:54:22.498Z,4.10
2023-02-05T14:56:50.648Z,4.00
2023-02-05T14:59:29.641Z,4.00
2023-02-05T15:01:57.926Z,3.90
2023-02-05T15:04:45.859Z,3.90
2023-02-05T15:07:18.716Z,3.90
2023-02-05T15:09:51.601Z,3.80
2023-02-05T15:12:29.405Z,3.80
2023-02-05T15:14:58.581Z,3.80
2023-02-05T15:17:32.215Z,3.70
2023-02-05T15:20:11.086Z,3.70
2023-02-05T15:22:46.343Z,3.70
2023-02-05T15:25:31.059Z,3.70
2023-02-05T15:28:02.431Z,3.60
2023-02-05T15:30:39.993Z,3.60
2023-02-05T15:33:15.633Z,3.60
2023-02-05T15:35:45.341Z,3.50
2023-02-05T15:38:20.946Z,3.50
2023-02-05T15:40:47.910Z,3.40
2023-02-05T15:43:21.413Z,3.40
2023-02-05T15:46:09.818Z,3.40
2023-02-05T15:48:40.060Z,3.40
2023-02-05T15:51:24.361Z,3.40
2023-02-05T15:53:51.768Z,3.30
2023-02-05T15:56:25.723Z,3.30
2023-02-05T15:59:00.811Z,3.30
2023-02-05T16:01:53.143Z,3.30
2023-02-05T16:04:37.573Z,3.20
2023-02-05T16:07:24.945Z,3.20
2023-02-05T16:09:56.256Z,3.20
2023-02-05T16:12:23.393Z,3.20
2023-02-05T16:15:05.687Z,3.10
2023-02-05T16:17:44.127Z,3.10
2023-02-05T16:20:28.900Z,3.10
2023-02-05T16:22:57.717Z,3.00
2023-02-05T16:25:49.260Z,3.00
2023-02-05T16:28:24.205Z,3.00
2023-02-05T16:30:56.322Z,3.00
2023-02-05T16:33:47.269Z,3.00
2023-02-05T16:36:21.640Z,2.90
2023-02-05T16:38:58.293Z,2.90
2023-02-05T16:41:44.209Z,2.90
2023-02-05T16:44:29.949Z,2.90
2023-02-05T16:47:17.115Z,2.90
2023-02-05T16:49:47.037Z,2.90
2023-02-05T16:52:33.256Z,2.90
2023-02-05T16:55:27.760Z,2.80
2023-02-05T16:58:02.856Z,2.80
2023-02-05T17:00:30.472Z,2.80
2023-02-05T17:03:06.401Z,2.70
2023-02-05T17:05:36.404Z,2.70
2023-02-05T17:08:08.851Z,2.70
2023-02-05T17:10:54.383Z,2.70
2023-02-05T17:13:40.591Z,2.70
2023-02-05T17:16:26.983Z,2.60
2023-02-05T17:18:59.790Z,2.60
2023-02-05T17:21:29.567Z,2.60
2023-02-05T17:23:59.145Z,2.60
2023-02-05T17:26:28.601Z,2.60
2023-02-05T17:29:00.146Z,2.60
2023-02-05T17:31:29.177Z,2.60
2023-02-05T17:33:57.945Z,2.60
2023-02-05T17:36:25.575Z,2.50
2023-02-05T17:38:52.959Z,2.50
2023-02-05T17:41:42.134Z,2.50
2023-02-05T17:44:15.576Z,2.50
2023-02-05T17:46:43.398Z,2.50
2023-02-05T17:49:10.395Z,2.50
2023-02-05T17:51:41.649Z,2.50
2023-02-05T17:54:37.572Z,2.50
2023-02-05T17:57:18.714Z,2.50
2023-02-05T17:59:46.256Z,2.50
2023-02-05T18:02:13.841Z,2.50
2023-02-05T18:04:41.432Z,2.40
2023-02-05T18:07:31.752Z,2.40
2023-02-05T18:10:01.912Z,2.40
2023-02-05T18:12:28.985Z,2.40
2023-02-05T18:14:55.688Z,2.40
2023-02-05T18:17:22.399Z,2.40
2023-02-05T18:19:49.083Z,2.40
2023-02-05T18:22:16.160Z,2.40
2023-02-05T18:24:42.952Z,2.40
2023-02-05T18:27:09.771Z,2.40
2023-02-05T18:29:36.746Z,2.40
2023-02-05T18:32:04.236Z,2.40
2023-02-05T18:34:30.974Z,2.40
2023-02-05T18:36:58.074Z,2.30
2023-02-05T18:39:28.468Z,2.40
2023-02-05T18:41:58.753Z,2.40
2023-02-05T18:44:26.806Z,2.30
2023-02-05T18:46:54.200Z,2.30
2023-02-05T18:49:21.043Z,2.30
2023-02-05T18:51:47.825Z,2.30
2023-02-05T18:54:14.640Z,2.30
2023-02-05T18:56:41.366Z,2.30
2023-02-05T18:59:09.572Z,2.30
2023-02-05T19:01:38.739Z,2.20
2023-02-05T19:04:18.558Z,2.20
2023-02-05T19:06:52.387Z,2.20
2023-02-05T19:09:23.852Z,2.10
2023-02-05T19:11:50.954Z,2.10
2023-02-05T19:14:19.823Z,2.10
2023-02-05T19:16:47.924Z,2.00
2023-02-05T19:19:23.754Z,2.00
2023-02-05T19:21:55.432Z,2.00
2023-02-05T19:24:22.702Z,1.90
2023-02-05T19:26:50.880Z,1.90
2023-02-05T19:29:19.604Z,1.90
2023-02-05T19:31:47.260Z,1.80
2023-02-05T19:34:14.116Z,1.80
2023-02-05T19:36:41.041Z,1.80
2023-02-05T19:39:09.332Z,1.80
2023-02-05T19:41:36.881Z,1.70
2023-02-05T19:44:06.251Z,1.70
2023-02-05T19:46:37.304Z,1.70
2023-02-05T19:49:06.825Z,1.70
2023-02-05T19:51:34.072Z,1.80
2023-02-05T19:54:03.218Z,1.80
2023-02-05T19:56:30.679Z,1.80
2023-02-05T19:58:57.438Z,1.80
2023-02-05T20:01:32.660Z,1.90
2023-02-05T20:04:11.883Z,1.90
2023-02-05T20:06:40.368Z,1.90
2023-02-05T20:09:10.616Z,1.90
2023-02-05T20:11:41.519Z,2.00
2023-02-05T20:14:09.197Z,2.00
2023-02-05T20:16:36.036Z,2.00
2023-02-05T20:19:03.294Z,2.00
2023-02-05T20:21:30.970Z,2.00
2023-02-05T20:23:57.859Z,2.00
2023-02-05T20:26:25.161Z,2.00
2023-02-05T20:29:12.840Z,1.90
2023-02-05T20:31:43.469Z,2.00
2023-02-05T20:34:22.274Z,2.00
2023-02-05T20:36:54.636Z,2.00
2023-02-05T20:39:23.695Z,2.00
2023-02-05T20:41:52.439Z,2.00
2023-02-05T20:44:19.604Z,2.00
2023-02-05T20:46:46.382Z,2.00
2023-02-05T20:49:13.228Z,2.00
2023-02-05T20:51:40.410Z,2.00
2023-02-05T20:54:07.567Z,2.00
2023-02-05T20:56:35.231Z,2.00
2023-02-05T20:59:04.920Z,2.00
2023-02-05T21:01:32.914Z,2.00
2023-02-05T21:04:01.928Z,2.00
2023-02-05T21:06:34.040Z,2.00
2023-02-05T21:09:01.108Z,2.00
2023-02-05T21:11:29.441Z,2.00
2023-02-05T21:13:56.678Z,2.00
2023-02-05T21:16:24.252Z,2.00
2023-02-05T21:18:52.458Z,2.00
2023-02-05T21:21:45.787Z,2.00
2023-02-05T21:24:14.482Z,2.00
2023-02-05T21:26:43.408Z,2.00
2023-02-05T21:29:13.328Z,2.00
2023-02-05T21:31:44.799Z,2.00
2023-02-05T21:34:17.964Z,2.00
2023-02-05T21:36:47.128Z,2.00
2023-02-05T21:39:15.796Z,2.00
2023-02-05T21:41:44.841Z,2.00
2023-02-05T21:44:11.799Z,2.00
2023-02-05T21:46:38.631Z,1.90
2023-02-05T21:49:05.578Z,1.90
2023-02-05T21:51:34.630Z,1.90
2023-02-05T21:54:04.746Z,1.90
2023-02-05T21:56:34.751Z,1.90
2023-02-05T21:59:01.578Z,1.90
2023-02-05T22:01:30.894Z,1.90
2023-02-05T22:04:00.372Z,1.90
2023-02-05T22:06:32.396Z,1.90
2023-02-05T22:09:00.378Z,1.90
2023-02-05T22:11:27.888Z,1.90
2023-02-05T22:13:55.670Z,2.00
2023-02-05T22:16:25.550Z,2.00
2023-02-05T22:18:53.339Z,2.00
2023-02-05T22:21:29.408Z,2.00
2023-02-05T22:23:58.305Z,2.00
2023-02-05T22:26:28.441Z,2.00
2023-02-05T22:28:59.719Z,2.00
2023-02-05T22:31:28.262Z,2.00
2023-02-05T22:33:56.052Z,2.00
2023-02-05T22:36:25.305Z,1.90
2023-02-05T22:38:52.845Z,1.90
2023-02-05T22:41:25.742Z,1.90
2023-02-05T22:43:56.250Z,1.90
2023-02-05T22:46:25.261Z,1.90
2023-02-05T22:48:52.847Z,1.90
2023-02-05T22:51:25.392Z,2.00
2023-02-05T22:53:53.701Z,1.90
2023-02-05T22:56:21.302Z,1.90
2023-02-05T22:58:49.078Z,1.90
2023-02-05T23:01:17.139Z,1.80
2023-02-05T23:03:45.674Z,1.80
2023-02-05T23:06:14.381Z,1.80
2023-02-05T23:08:41.594Z,1.70
2023-02-05T23:11:13.544Z,1.70
2023-02-05T23:13:41.567Z,1.60
2023-02-05T23:16:10.923Z,1.60
2023-02-05T23:18:39.245Z,1.50
2023-02-05T23:21:10.861Z,1.40
2023-02-05T23:23:37.916Z,1.30
2023-02-05T23:26:13.519Z,1.30
2023-02-05T23:28:40.606Z,1.20
2023-02-05T23:31:08.082Z,1.10
2023-02-05T23:33:35.854Z,1.10
2023-02-05T23:36:04.218Z,1.00
2023-02-05T23:38:31.008Z,0.90
2023-02-05T23:40:58.047Z,0.90
2023-02-05T23:43:24.868Z,0.80
2023-02-05T23:45:52.965Z,0.70
2023-02-05T23:48:20.438Z,0.70
2023-02-05T23:50:52.428Z,0.70
2023-02-05T23:53:21.121Z,0.70
2023-02-05T23:55:49.535Z,0.70
2023-02-05T23:58:17.826Z,0.70
